Yakutia B738 at Rostov on Dec 1st 2012, runway excursion on landing

Last Update: December 3, 2012 / 14:53:50 GMT/Zulu time

Bookmark this article
Incident Facts

Date of incident
Dec 1, 2012

Classification
Incident

Flight number
R3-9972

Departure
Rimini, Italy

Destination
Rostov, Russia

Aircraft Registration
VQ-BMP

Aircraft Type
Boeing 737-800

ICAO Type Designator
B738

A Yakutia Boeing 737-800, registration VQ-BMP performing flight R3-9972 from Rimini (Italy) to Rostov (Russia) with 164 passengers and 7 crew, landed on Rostov's runway 22 at about 13:23L (09:23Z) but overran the end of the runway and came to a stop to the right of the runway end safety area about 80 meters off paved surface. No injuries occurred, the aircraft sustained minor damage.

The passengers disembarked onto soft ground via mobile stairs, walked to the taxiway and were bussed to the terminal.

Rosaviatsia reported the crew had been using thrust reversers and brakes but found the brakes were not able to stop the aircraft before the runway end and thus decided to turn right. The aircraft came to a stop about 80 meters off the runway. The aircraft received damage to the left engine's (CFM56) fan blades.

Metars:
URRR 011100Z 21003MPS 9999 -SHRA BKN013 SCT026CB OVC100 10/08 Q1016 NOSIG RMK SC051
URRR 011030Z 18002MPS 130V240 9999 -SHRA SCT013 BKN026CB OVC100 11/07 Q1016 NOSIG RMK SC051
URRR 011000Z VRB01MPS 9999 -SHRA SCT026CB OVC100 11/07 Q1016 NOSIG RMK SC051
URRR 010930Z 18002MPS 140V230 9999 -SHRA SCT026CB OVC100 12/07 Q1016 NOSIG RMK SC051
URRR 010900Z 15002MPS 130V200 9999 -SHRA SCT026CB OVC100 12/07 Q1016 NOSIG RMK SC051
URRR 010830Z 15002MPS 9999 FEW026CB BKN100 12/05 Q1016 NOSIG RMK SC051
URRR 010800Z VRB01MPS 9999 FEW026CB BKN100 13/05 Q1016 NOSIG RMK SC051
URRR 010730Z VRB01MPS 9999 FEW026CB BKN100 12/06 Q1017 NOSIG RMK SC051
URRR 010700Z 11003MPS 090V160 9999 FEW026CB BKN100 10/07 Q1016 NOSIG RMK SC051
URRR 010630Z 10003MPS 9999 FEW026CB BKN100 10/07 Q1016 NOSIG RMK SC051
URRR 010600Z 10002MPS 9999 FEW023 BKN100 10/07 Q1016 NOSIG RMK SC051
Incident Facts

Date of incident
Dec 1, 2012

Classification
Incident

Flight number
R3-9972

Departure
Rimini, Italy

Destination
Rostov, Russia

Aircraft Registration
VQ-BMP

Aircraft Type
Boeing 737-800

ICAO Type Designator
B738

This article is published under license from Avherald.com. © of text by Avherald.com.
Article source

You can read 2 more free articles without a subscription.

Subscribe now and continue reading without any limits!

Are you a subscriber? Login
Subscribe

Read unlimited articles and receive our daily update briefing. Gain better insights into what is happening in commercial aviation safety.

Free newsletter

Want to know more and stay ahead? Get our free weekly newsletter and join 5471 existing subscribers.

By subscribing, you accept our terms and conditions and confirm that you've read our privacy policy.

Send tip

Support AeroInside by sending a small tip amount.

Related articles

Newest articles

Subscribe today

Are you researching aviation incidents? Get access to AeroInside Insights, unlimited read access and receive the daily newsletter.

Pick your plan and subscribe

Partner

Blockaviation logo

A new way to document and demonstrate airworthiness compliance and aircraft value. Find out more.

Virtual Speech logo

ELITE Simulation Solutions is a leading global provider of Flight Simulation Training Devices, IFR training software as well as flight controls and related services. Find out more.

Get updates

Never miss an article from AeroInside. Subscribe to our free weekly newsletter and join 5471 existing subscribers.

By subscribing, you accept our terms and conditions and that you've read our privacy policy.

AeroInside Blog
Popular aircraft
Airbus A320
Boeing 737-800
Boeing 737-800 MAX
Popular airlines
American Airlines
United
Delta
Air Canada
Lufthansa
British Airways